createdAt,value
2019-05-28T00:00:23.153Z,2.70
2019-05-28T00:05:28.842Z,2.97
2019-05-28T00:10:33.031Z,2.83
2019-05-28T00:15:37.137Z,3.50
2019-05-28T00:20:42.884Z,3.80
2019-05-28T00:25:47.008Z,2.93
2019-05-28T00:30:53.669Z,3.17
2019-05-28T00:35:59.414Z,3.83
2019-05-28T00:41:03.642Z,5.70
2019-05-28T00:46:07.845Z,4.83
2019-05-28T00:51:12.271Z,5.87
2019-05-28T00:56:16.907Z,5.03
2019-05-28T01:01:21.137Z,5.83
2019-05-28T01:06:25.502Z,4.83
2019-05-28T01:11:29.796Z,4.93
2019-05-28T01:16:33.962Z,4.27
2019-05-28T01:21:38.076Z,4.67
2019-05-28T01:26:42.304Z,5.20
2019-05-28T01:31:46.435Z,4.97
2019-05-28T01:36:50.553Z,3.87
2019-05-28T01:41:57.067Z,4.70
2019-05-28T01:47:01.228Z,4.57
2019-05-28T01:52:05.428Z,5.23
2019-05-28T01:57:14.894Z,4.40
2019-05-28T02:02:16.440Z,4.47
2019-05-28T02:07:22.445Z,4.53
2019-05-28T02:12:30.958Z,5.20
2019-05-28T02:17:35.392Z,4.87
2019-05-28T02:22:39.980Z,4.53
2019-05-28T02:27:44.336Z,4.97
2019-05-28T02:32:48.464Z,4.80
2019-05-28T02:37:54.312Z,4.40
2019-05-28T02:42:58.971Z,4.80
2019-05-28T02:48:03.341Z,5.33
2019-05-28T02:53:07.789Z,5.27
2019-05-28T02:58:13.131Z,4.70
2019-05-28T03:03:18.940Z,5.67
2019-05-28T03:08:23.972Z,5.37
2019-05-28T03:13:28.759Z,5.27
2019-05-28T03:18:34.497Z,4.50
2019-05-28T03:23:39.192Z,4.27
2019-05-28T03:28:43.402Z,4.40
2019-05-28T03:33:48.016Z,4.63
2019-05-28T03:38:52.630Z,4.83
2019-05-28T04:33:35.244Z,6.33
2019-05-28T06:07:53.934Z,7.23
2019-05-28T06:36:39.964Z,6.33
2019-05-28T06:41:44.898Z,6.03
2019-05-28T06:46:49.401Z,6.43
2019-05-28T06:51:53.991Z,5.87
2019-05-28T06:57:00.145Z,5.43
2019-05-28T07:02:04.688Z,5.50
2019-05-28T07:07:09.069Z,4.93
2019-05-28T07:12:21.935Z,5.73
2019-05-28T07:17:23.631Z,4.87
2019-05-28T07:22:28.461Z,4.33
2019-05-28T07:27:33.499Z,4.93
2019-05-28T07:32:41.024Z,4.93
2019-05-28T07:37:52.867Z,5.50
2019-05-28T07:43:17.591Z,5.50
2019-05-28T07:48:40.904Z,4.67
2019-05-28T07:53:50.150Z,4.93
2019-05-28T07:59:02.676Z,3.93
2019-05-28T08:05:27.450Z,4.93
2019-05-28T08:10:16.359Z,5.03
2019-05-28T08:15:52.536Z,4.63
2019-05-28T08:27:08.269Z,4.93
2019-05-28T12:35:34.328Z,1.73
2019-05-28T12:40:47.612Z,1.80
2019-05-28T12:45:47.185Z,1.37
2019-05-28T12:50:51.510Z,1.67
2019-05-28T12:56:01.647Z,1.30
2019-05-28T13:01:05.991Z,1.57
2019-05-28T13:06:10.355Z,1.70
2019-05-28T13:11:15.130Z,1.50
2019-05-28T13:16:19.563Z,1.30
2019-05-28T13:21:23.825Z,1.40
2019-05-28T13:26:28.128Z,1.53
2019-05-28T13:31:32.373Z,1.83
2019-05-28T13:36:36.769Z,1.43
2019-05-28T13:41:42.452Z,1.20
2019-05-28T13:46:46.954Z,1.17
2019-05-28T13:51:52.994Z,1.10
2019-05-28T13:56:58.244Z,1.10
2019-05-28T14:02:04.257Z,1.53
2019-05-28T14:07:08.788Z,1.57
2019-05-28T14:12:16.764Z,1.90
2019-05-28T14:17:21.426Z,1.40
2019-05-28T14:22:34.015Z,1.30
2019-05-28T14:27:33.145Z,1.03
2019-05-28T14:32:37.370Z,1.03
2019-05-28T14:37:41.501Z,1.20
2019-05-28T14:42:45.635Z,1.33
2019-05-28T14:47:52.753Z,1.13
2019-05-28T14:52:57.187Z,1.47
2019-05-28T14:58:05.275Z,1.60
2019-05-28T15:03:08.620Z,1.60
2019-05-28T15:08:13.016Z,1.13
2019-05-28T15:13:18.879Z,1.57
2019-05-28T15:18:23.029Z,1.10
2019-05-28T15:23:27.400Z,1.40
2019-05-28T15:28:31.533Z,1.40
2019-05-28T15:33:36.257Z,1.10
2019-05-28T15:38:40.388Z,1.20
2019-05-28T15:43:44.526Z,1.30
2019-05-28T15:48:49.479Z,1.23
2019-05-28T15:53:53.723Z,1.40
2019-05-28T15:58:58.092Z,1.50
2019-05-28T16:04:02.236Z,1.30
2019-05-28T16:09:12.882Z,1.30
2019-05-28T16:14:16.519Z,0.97
2019-05-28T16:19:22.258Z,1.37
2019-05-28T16:24:27.402Z,1.17
2019-05-28T16:29:31.538Z,1.57
2019-05-28T16:34:35.678Z,1.40
2019-05-28T16:39:41.341Z,1.30
2019-05-28T16:44:45.558Z,1.20
2019-05-28T16:49:49.927Z,1.20
2019-05-28T16:54:54.281Z,1.40
2019-05-28T17:00:00.589Z,1.50
2019-05-28T17:05:05.304Z,1.50
2019-05-28T17:10:09.439Z,1.10
2019-05-28T17:15:15.901Z,1.33
2019-05-28T17:20:20.181Z,1.10
2019-05-28T17:25:24.371Z,1.07
2019-05-28T17:30:28.877Z,1.27
2019-05-28T17:35:36.587Z,1.00
2019-05-28T17:40:48.377Z,1.00
2019-05-28T17:45:47.359Z,1.00
2019-05-28T17:50:53.245Z,0.87
2019-05-28T17:56:00.805Z,0.90
2019-05-28T18:01:04.917Z,0.90
2019-05-28T18:06:09.077Z,0.90
2019-05-28T18:11:13.223Z,1.00
2019-05-28T18:16:17.370Z,1.00
2019-05-28T18:21:21.541Z,0.80
2019-05-28T18:26:30.446Z,1.00
2019-05-28T18:31:34.596Z,1.27
2019-05-28T18:36:38.720Z,1.63
2019-05-28T18:41:44.689Z,1.20
2019-05-28T18:46:48.992Z,0.97
2019-05-28T18:51:53.088Z,1.20
2019-05-28T18:56:57.281Z,1.00
2019-05-28T19:02:01.684Z,0.97
2019-05-28T19:07:08.909Z,1.10
2019-05-28T19:12:13.109Z,0.87
2019-05-28T19:17:18.764Z,0.70
2019-05-28T19:22:23.501Z,0.93
2019-05-28T19:27:28.173Z,1.10
2019-05-28T19:32:34.072Z,1.10
2019-05-28T19:37:38.216Z,1.20
2019-05-28T19:42:42.382Z,1.30
2019-05-28T19:47:46.770Z,1.40
2019-05-28T19:52:51.926Z,1.30
2019-05-28T19:57:57.467Z,1.80
2019-05-28T20:03:01.641Z,2.00
2019-05-28T20:08:05.793Z,1.80
2019-05-28T20:13:10.189Z,2.10
2019-05-28T20:18:26.335Z,1.97
2019-05-28T20:23:20.505Z,1.80
2019-05-28T20:28:24.580Z,1.70
2019-05-28T20:33:29.029Z,1.63
2019-05-28T20:38:34.736Z,1.67
2019-05-28T20:43:38.844Z,2.03
2019-05-28T20:48:42.968Z,2.30
2019-05-28T20:53:47.068Z,2.13
2019-05-28T20:58:54.289Z,2.13
2019-05-28T21:03:58.424Z,2.43
2019-05-28T21:09:04.278Z,2.27
2019-05-28T21:14:08.458Z,2.40
2019-05-28T21:19:13.554Z,1.87
2019-05-28T21:24:18.914Z,1.90
2019-05-28T21:29:23.063Z,1.77
2019-05-28T21:34:27.176Z,1.53
2019-05-28T21:39:31.348Z,1.30
2019-05-28T21:44:35.453Z,1.30
2019-05-28T21:49:39.784Z,1.60
2019-05-28T21:54:43.898Z,1.63
2019-05-28T21:59:50.276Z,1.40
2019-05-28T22:04:55.295Z,1.40
2019-05-28T22:10:00.211Z,1.53
2019-05-28T22:15:05.478Z,1.70
2019-05-28T22:20:11.069Z,1.97
2019-05-28T22:25:15.246Z,1.90
2019-05-28T22:30:20.749Z,1.77
2019-05-28T22:35:24.961Z,1.93
2019-05-28T22:40:29.132Z,1.73
2019-05-28T22:45:39.924Z,1.93
2019-05-28T22:50:40.750Z,1.67
2019-05-28T22:55:45.121Z,1.40
2019-05-28T23:00:49.543Z,1.73
2019-05-28T23:05:53.656Z,1.43
2019-05-28T23:10:59.415Z,1.67
2019-05-28T23:16:06.189Z,1.50
2019-05-28T23:21:11.013Z,1.53
2019-05-28T23:26:15.259Z,1.43
2019-05-28T23:31:19.361Z,2.00
2019-05-28T23:36:23.771Z,1.70
2019-05-28T23:41:28.404Z,1.70
2019-05-28T23:46:33.484Z,1.60
2019-05-28T23:51:37.595Z,1.40
2019-05-28T23:56:42.920Z,1.43
